sensor_id;sensor_type;location;lat;lon;timestamp;P1;durP1;ratioP1;P2;durP2;ratioP2
18102;SDS011;9178;51.120;6.192;2022-10-31T00:00:57;13.17;;;7.23;;
18102;SDS011;9178;51.120;6.192;2022-10-31T00:03:25;14.80;;;7.30;;
18102;SDS011;9178;51.120;6.192;2022-10-31T00:05:53;13.93;;;7.10;;
18102;SDS011;9178;51.120;6.192;2022-10-31T00:08:19;16.30;;;7.33;;
18102;SDS011;9178;51.120;6.192;2022-10-31T00:10:47;17.57;;;7.50;;
18102;SDS011;9178;51.120;6.192;2022-10-31T00:13:14;17.70;;;7.47;;
18102;SDS011;9178;51.120;6.192;2022-10-31T00:15:41;16.23;;;7.10;;
18102;SDS011;9178;51.120;6.192;2022-10-31T00:18:09;14.07;;;6.60;;
18102;SDS011;9178;51.120;6.192;2022-10-31T00:20:36;15.53;;;7.57;;
18102;SDS011;9178;51.120;6.192;2022-10-31T00:23:03;13.40;;;7.07;;
18102;SDS011;9178;51.120;6.192;2022-10-31T00:25:33;13.33;;;6.83;;
18102;SDS011;9178;51.120;6.192;2022-10-31T00:28:02;14.50;;;7.20;;
18102;SDS011;9178;51.120;6.192;2022-10-31T00:30:30;13.47;;;7.27;;
18102;SDS011;9178;51.120;6.192;2022-10-31T00:32:57;14.30;;;7.50;;
18102;SDS011;9178;51.120;6.192;2022-10-31T00:35:24;16.37;;;9.20;;
18102;SDS011;9178;51.120;6.192;2022-10-31T00:37:51;13.43;;;7.47;;
18102;SDS011;9178;51.120;6.192;2022-10-31T00:40:18;14.30;;;7.07;;
18102;SDS011;9178;51.120;6.192;2022-10-31T00:42:45;19.73;;;7.97;;
18102;SDS011;9178;51.120;6.192;2022-10-31T00:45:14;16.87;;;8.87;;
18102;SDS011;9178;51.120;6.192;2022-10-31T00:47:40;14.57;;;8.10;;
18102;SDS011;9178;51.120;6.192;2022-10-31T00:50:07;17.37;;;7.70;;
18102;SDS011;9178;51.120;6.192;2022-10-31T00:52:35;14.97;;;7.20;;
18102;SDS011;9178;51.120;6.192;2022-10-31T00:55:01;15.37;;;8.23;;
18102;SDS011;9178;51.120;6.192;2022-10-31T00:57:28;15.80;;;8.63;;
18102;SDS011;9178;51.120;6.192;2022-10-31T00:59:55;17.13;;;9.77;;
18102;SDS011;9178;51.120;6.192;2022-10-31T01:02:23;18.70;;;9.60;;
18102;SDS011;9178;51.120;6.192;2022-10-31T01:04:50;18.03;;;9.87;;
18102;SDS011;9178;51.120;6.192;2022-10-31T01:07:17;14.13;;;9.73;;
18102;SDS011;9178;51.120;6.192;2022-10-31T01:09:44;19.10;;;10.03;;
18102;SDS011;9178;51.120;6.192;2022-10-31T01:12:10;15.93;;;10.37;;
18102;SDS011;9178;51.120;6.192;2022-10-31T01:14:37;21.33;;;10.73;;
18102;SDS011;9178;51.120;6.192;2022-10-31T01:17:04;20.27;;;9.67;;
18102;SDS011;9178;51.120;6.192;2022-10-31T01:19:32;14.73;;;9.17;;
18102;SDS011;9178;51.120;6.192;2022-10-31T01:21:59;14.47;;;8.60;;
18102;SDS011;9178;51.120;6.192;2022-10-31T01:24:25;14.93;;;9.50;;
18102;SDS011;9178;51.120;6.192;2022-10-31T01:26:52;18.90;;;11.00;;
18102;SDS011;9178;51.120;6.192;2022-10-31T01:29:19;13.83;;;8.87;;
18102;SDS011;9178;51.120;6.192;2022-10-31T01:31:46;17.20;;;9.97;;
18102;SDS011;9178;51.120;6.192;2022-10-31T01:34:13;19.73;;;9.30;;
18102;SDS011;9178;51.120;6.192;2022-10-31T01:36:44;17.20;;;9.73;;
18102;SDS011;9178;51.120;6.192;2022-10-31T01:39:16;28.90;;;12.17;;
18102;SDS011;9178;51.120;6.192;2022-10-31T01:41:44;16.73;;;9.13;;
18102;SDS011;9178;51.120;6.192;2022-10-31T01:47:24;21.03;;;9.50;;
18102;SDS011;9178;51.120;6.192;2022-10-31T01:50:04;14.43;;;8.10;;
18102;SDS011;9178;51.120;6.192;2022-10-31T01:52:39;14.53;;;9.17;;
18102;SDS011;9178;51.120;6.192;2022-10-31T01:55:09;13.60;;;8.60;;
18102;SDS011;9178;51.120;6.192;2022-10-31T01:57:40;14.30;;;9.60;;
18102;SDS011;9178;51.120;6.192;2022-10-31T02:00:11;20.23;;;9.97;;
18102;SDS011;9178;51.120;6.192;2022-10-31T02:02:39;17.43;;;9.63;;
18102;SDS011;9178;51.120;6.192;2022-10-31T02:05:08;17.77;;;9.97;;
18102;SDS011;9178;51.120;6.192;2022-10-31T02:07:41;22.93;;;11.50;;
18102;SDS011;9178;51.120;6.192;2022-10-31T02:10:14;16.97;;;10.20;;
18102;SDS011;9178;51.120;6.192;2022-10-31T02:12:42;13.93;;;9.27;;
18102;SDS011;9178;51.120;6.192;2022-10-31T02:15:10;16.30;;;10.40;;
18102;SDS011;9178;51.120;6.192;2022-10-31T02:17:37;14.03;;;10.17;;
18102;SDS011;9178;51.120;6.192;2022-10-31T02:20:07;20.30;;;12.03;;
18102;SDS011;9178;51.120;6.192;2022-10-31T02:22:43;18.60;;;11.43;;
18102;SDS011;9178;51.120;6.192;2022-10-31T02:25:43;21.50;;;11.10;;
18102;SDS011;9178;51.120;6.192;2022-10-31T02:28:28;17.87;;;10.90;;
18102;SDS011;9178;51.120;6.192;2022-10-31T02:31:13;21.77;;;11.33;;
18102;SDS011;9178;51.120;6.192;2022-10-31T02:33:51;19.27;;;12.07;;
18102;SDS011;9178;51.120;6.192;2022-10-31T02:36:22;17.03;;;11.37;;
18102;SDS011;9178;51.120;6.192;2022-10-31T02:38:55;19.50;;;11.00;;
18102;SDS011;9178;51.120;6.192;2022-10-31T02:41:32;24.47;;;11.50;;
18102;SDS011;9178;51.120;6.192;2022-10-31T02:44:07;20.30;;;10.93;;
18102;SDS011;9178;51.120;6.192;2022-10-31T02:46:45;20.93;;;11.10;;
18102;SDS011;9178;51.120;6.192;2022-10-31T02:49:18;19.73;;;10.97;;
18102;SDS011;9178;51.120;6.192;2022-10-31T02:51:52;19.73;;;11.33;;
18102;SDS011;9178;51.120;6.192;2022-10-31T02:54:19;17.50;;;11.03;;
18102;SDS011;9178;51.120;6.192;2022-10-31T02:56:50;15.10;;;10.67;;
18102;SDS011;9178;51.120;6.192;2022-10-31T02:59:19;17.37;;;10.30;;
18102;SDS011;9178;51.120;6.192;2022-10-31T03:07:26;18.33;;;11.07;;
18102;SDS011;9178;51.120;6.192;2022-10-31T03:10:03;18.50;;;11.30;;
18102;SDS011;9178;51.120;6.192;2022-10-31T03:12:37;18.30;;;10.80;;
18102;SDS011;9178;51.120;6.192;2022-10-31T03:15:08;18.87;;;11.60;;
18102;SDS011;9178;51.120;6.192;2022-10-31T03:17:45;20.20;;;10.63;;
18102;SDS011;9178;51.120;6.192;2022-10-31T03:20:17;17.53;;;11.07;;
18102;SDS011;9178;51.120;6.192;2022-10-31T03:22:47;14.30;;;9.60;;
18102;SDS011;9178;51.120;6.192;2022-10-31T03:25:14;19.13;;;11.37;;
18102;SDS011;9178;51.120;6.192;2022-10-31T03:27:42;18.53;;;11.57;;
18102;SDS011;9178;51.120;6.192;2022-10-31T03:30:12;22.70;;;12.87;;
18102;SDS011;9178;51.120;6.192;2022-10-31T03:32:40;19.10;;;12.43;;
18102;SDS011;9178;51.120;6.192;2022-10-31T03:35:13;19.53;;;11.57;;
18102;SDS011;9178;51.120;6.192;2022-10-31T03:37:43;15.40;;;10.37;;
18102;SDS011;9178;51.120;6.192;2022-10-31T03:40:11;25.57;;;13.40;;
18102;SDS011;9178;51.120;6.192;2022-10-31T03:42:41;20.90;;;12.90;;
18102;SDS011;9178;51.120;6.192;2022-10-31T03:45:14;21.33;;;11.77;;
18102;SDS011;9178;51.120;6.192;2022-10-31T03:47:46;18.77;;;10.93;;
18102;SDS011;9178;51.120;6.192;2022-10-31T03:50:13;20.80;;;13.13;;
18102;SDS011;9178;51.120;6.192;2022-10-31T03:52:41;19.10;;;12.17;;
18102;SDS011;9178;51.120;6.192;2022-10-31T03:55:16;20.80;;;11.87;;
18102;SDS011;9178;51.120;6.192;2022-10-31T03:57:45;22.67;;;12.37;;
18102;SDS011;9178;51.120;6.192;2022-10-31T04:00:18;21.50;;;11.63;;
18102;SDS011;9178;51.120;6.192;2022-10-31T04:02:49;20.30;;;11.90;;
18102;SDS011;9178;51.120;6.192;2022-10-31T04:05:19;19.00;;;12.60;;
18102;SDS011;9178;51.120;6.192;2022-10-31T04:07:47;16.03;;;12.00;;
18102;SDS011;9178;51.120;6.192;2022-10-31T04:10:19;23.17;;;13.13;;
18102;SDS011;9178;51.120;6.192;2022-10-31T04:12:48;21.20;;;13.27;;
18102;SDS011;9178;51.120;6.192;2022-10-31T04:15:18;18.80;;;12.40;;
18102;SDS011;9178;51.120;6.192;2022-10-31T04:17:46;18.47;;;12.37;;
18102;SDS011;9178;51.120;6.192;2022-10-31T04:20:16;19.23;;;11.20;;
18102;SDS011;9178;51.120;6.192;2022-10-31T04:22:44;21.00;;;12.07;;
18102;SDS011;9178;51.120;6.192;2022-10-31T04:25:11;17.13;;;10.60;;
18102;SDS011;9178;51.120;6.192;2022-10-31T04:27:38;21.60;;;11.57;;
18102;SDS011;9178;51.120;6.192;2022-10-31T04:30:05;17.27;;;11.27;;
18102;SDS011;9178;51.120;6.192;2022-10-31T04:32:32;17.80;;;11.83;;
18102;SDS011;9178;51.120;6.192;2022-10-31T04:35:01;17.70;;;12.73;;
18102;SDS011;9178;51.120;6.192;2022-10-31T04:37:27;21.67;;;12.70;;
18102;SDS011;9178;51.120;6.192;2022-10-31T04:39:54;19.03;;;13.43;;
18102;SDS011;9178;51.120;6.192;2022-10-31T04:42:21;20.93;;;12.73;;
18102;SDS011;9178;51.120;6.192;2022-10-31T04:44:48;20.23;;;11.87;;
18102;SDS011;9178;51.120;6.192;2022-10-31T04:47:15;15.23;;;11.57;;
18102;SDS011;9178;51.120;6.192;2022-10-31T04:49:41;19.83;;;12.30;;
18102;SDS011;9178;51.120;6.192;2022-10-31T04:52:10;17.27;;;12.13;;
18102;SDS011;9178;51.120;6.192;2022-10-31T04:54:36;17.10;;;11.90;;
18102;SDS011;9178;51.120;6.192;2022-10-31T04:57:03;21.90;;;12.23;;
18102;SDS011;9178;51.120;6.192;2022-10-31T04:59:30;20.33;;;12.17;;
18102;SDS011;9178;51.120;6.192;2022-10-31T05:01:57;19.23;;;12.90;;
18102;SDS011;9178;51.120;6.192;2022-10-31T05:04:24;20.63;;;13.30;;
18102;SDS011;9178;51.120;6.192;2022-10-31T05:06:50;21.73;;;13.00;;
18102;SDS011;9178;51.120;6.192;2022-10-31T05:09:18;20.37;;;12.60;;
18102;SDS011;9178;51.120;6.192;2022-10-31T05:11:45;23.60;;;12.47;;
18102;SDS011;9178;51.120;6.192;2022-10-31T05:14:12;20.07;;;13.13;;
18102;SDS011;9178;51.120;6.192;2022-10-31T05:16:39;22.77;;;14.80;;
18102;SDS011;9178;51.120;6.192;2022-10-31T05:19:06;32.77;;;16.97;;
18102;SDS011;9178;51.120;6.192;2022-10-31T05:21:33;25.27;;;15.57;;
18102;SDS011;9178;51.120;6.192;2022-10-31T05:23:59;27.80;;;15.90;;
18102;SDS011;9178;51.120;6.192;2022-10-31T05:26:28;24.47;;;13.73;;
18102;SDS011;9178;51.120;6.192;2022-10-31T05:28:54;23.03;;;13.80;;
18102;SDS011;9178;51.120;6.192;2022-10-31T05:31:21;20.53;;;12.70;;
18102;SDS011;9178;51.120;6.192;2022-10-31T05:33:48;22.77;;;13.37;;
18102;SDS011;9178;51.120;6.192;2022-10-31T05:36:15;23.00;;;13.23;;
18102;SDS011;9178;51.120;6.192;2022-10-31T05:38:42;23.73;;;13.60;;
18102;SDS011;9178;51.120;6.192;2022-10-31T05:41:08;24.60;;;13.80;;
18102;SDS011;9178;51.120;6.192;2022-10-31T05:43:36;33.00;;;17.83;;
18102;SDS011;9178;51.120;6.192;2022-10-31T05:46:03;25.30;;;14.90;;
18102;SDS011;9178;51.120;6.192;2022-10-31T05:48:30;34.13;;;17.17;;
18102;SDS011;9178;51.120;6.192;2022-10-31T05:50:57;26.03;;;15.07;;
18102;SDS011;9178;51.120;6.192;2022-10-31T05:53:24;25.53;;;13.90;;
18102;SDS011;9178;51.120;6.192;2022-10-31T05:55:51;21.53;;;13.90;;
18102;SDS011;9178;51.120;6.192;2022-10-31T05:58:17;25.80;;;14.90;;
18102;SDS011;9178;51.120;6.192;2022-10-31T06:00:45;23.00;;;13.70;;
18102;SDS011;9178;51.120;6.192;2022-10-31T06:03:12;25.20;;;14.33;;
18102;SDS011;9178;51.120;6.192;2022-10-31T06:05:39;18.93;;;13.43;;
18102;SDS011;9178;51.120;6.192;2022-10-31T06:08:06;23.30;;;13.67;;
18102;SDS011;9178;51.120;6.192;2022-10-31T06:10:33;23.00;;;14.80;;
18102;SDS011;9178;51.120;6.192;2022-10-31T06:13:00;25.77;;;15.40;;
18102;SDS011;9178;51.120;6.192;2022-10-31T06:15:26;28.37;;;15.10;;
18102;SDS011;9178;51.120;6.192;2022-10-31T06:17:58;24.57;;;14.97;;
18102;SDS011;9178;51.120;6.192;2022-10-31T06:20:26;22.93;;;16.03;;
18102;SDS011;9178;51.120;6.192;2022-10-31T06:22:53;35.53;;;19.53;;
18102;SDS011;9178;51.120;6.192;2022-10-31T06:25:20;38.13;;;18.40;;
18102;SDS011;9178;51.120;6.192;2022-10-31T06:27:46;24.27;;;14.40;;
18102;SDS011;9178;51.120;6.192;2022-10-31T06:30:13;23.50;;;14.57;;
18102;SDS011;9178;51.120;6.192;2022-10-31T06:32:40;26.00;;;15.50;;
18102;SDS011;9178;51.120;6.192;2022-10-31T06:35:09;19.90;;;13.37;;
18102;SDS011;9178;51.120;6.192;2022-10-31T06:37:36;25.17;;;15.47;;
18102;SDS011;9178;51.120;6.192;2022-10-31T06:40:03;28.13;;;16.30;;
18102;SDS011;9178;51.120;6.192;2022-10-31T06:42:30;25.43;;;16.03;;
18102;SDS011;9178;51.120;6.192;2022-10-31T06:44:57;29.50;;;16.30;;
18102;SDS011;9178;51.120;6.192;2022-10-31T06:47:24;23.57;;;14.47;;
18102;SDS011;9178;51.120;6.192;2022-10-31T06:49:51;30.23;;;16.27;;
18102;SDS011;9178;51.120;6.192;2022-10-31T06:52:19;29.23;;;15.60;;
18102;SDS011;9178;51.120;6.192;2022-10-31T06:54:48;29.93;;;17.17;;
18102;SDS011;9178;51.120;6.192;2022-10-31T06:57:15;22.13;;;14.57;;
18102;SDS011;9178;51.120;6.192;2022-10-31T06:59:41;23.37;;;15.37;;
18102;SDS011;9178;51.120;6.192;2022-10-31T07:02:08;25.73;;;14.80;;
18102;SDS011;9178;51.120;6.192;2022-10-31T07:04:36;26.70;;;15.53;;
18102;SDS011;9178;51.120;6.192;2022-10-31T07:07:03;26.73;;;16.53;;
18102;SDS011;9178;51.120;6.192;2022-10-31T07:09:31;33.33;;;16.90;;
18102;SDS011;9178;51.120;6.192;2022-10-31T07:11:58;25.57;;;16.13;;
18102;SDS011;9178;51.120;6.192;2022-10-31T07:14:28;23.40;;;14.23;;
18102;SDS011;9178;51.120;6.192;2022-10-31T07:16:57;41.17;;;20.97;;
18102;SDS011;9178;51.120;6.192;2022-10-31T07:19:24;40.17;;;20.47;;
18102;SDS011;9178;51.120;6.192;2022-10-31T07:21:51;41.97;;;19.43;;
18102;SDS011;9178;51.120;6.192;2022-10-31T07:24:18;37.23;;;19.50;;
18102;SDS011;9178;51.120;6.192;2022-10-31T07:26:47;35.40;;;19.57;;
18102;SDS011;9178;51.120;6.192;2022-10-31T07:29:14;49.57;;;23.70;;
18102;SDS011;9178;51.120;6.192;2022-10-31T07:31:40;42.50;;;22.13;;
18102;SDS011;9178;51.120;6.192;2022-10-31T07:34:09;45.77;;;22.43;;
18102;SDS011;9178;51.120;6.192;2022-10-31T07:36:35;53.30;;;24.27;;
18102;SDS011;9178;51.120;6.192;2022-10-31T07:39:02;47.67;;;22.63;;
18102;SDS011;9178;51.120;6.192;2022-10-31T07:41:29;40.37;;;21.27;;
18102;SDS011;9178;51.120;6.192;2022-10-31T07:43:57;50.97;;;24.17;;
18102;SDS011;9178;51.120;6.192;2022-10-31T07:46:24;49.40;;;24.57;;
18102;SDS011;9178;51.120;6.192;2022-10-31T07:48:51;53.07;;;23.63;;
18102;SDS011;9178;51.120;6.192;2022-10-31T07:51:17;54.07;;;24.00;;
18102;SDS011;9178;51.120;6.192;2022-10-31T07:53:44;53.57;;;24.13;;
18102;SDS011;9178;51.120;6.192;2022-10-31T07:56:11;52.23;;;24.83;;
18102;SDS011;9178;51.120;6.192;2022-10-31T07:58:38;53.33;;;25.53;;
18102;SDS011;9178;51.120;6.192;2022-10-31T08:01:06;49.20;;;25.47;;
18102;SDS011;9178;51.120;6.192;2022-10-31T08:03:33;50.63;;;24.23;;
18102;SDS011;9178;51.120;6.192;2022-10-31T08:06:00;48.27;;;24.63;;
18102;SDS011;9178;51.120;6.192;2022-10-31T08:08:26;52.47;;;24.93;;
18102;SDS011;9178;51.120;6.192;2022-10-31T08:10:54;51.53;;;25.43;;
18102;SDS011;9178;51.120;6.192;2022-10-31T08:13:21;53.97;;;24.10;;
18102;SDS011;9178;51.120;6.192;2022-10-31T08:15:47;49.60;;;25.03;;
18102;SDS011;9178;51.120;6.192;2022-10-31T08:18:18;48.33;;;24.87;;
18102;SDS011;9178;51.120;6.192;2022-10-31T08:20:47;46.47;;;24.47;;
18102;SDS011;9178;51.120;6.192;2022-10-31T08:23:13;48.63;;;24.80;;
18102;SDS011;9178;51.120;6.192;2022-10-31T08:25:41;42.07;;;21.50;;
18102;SDS011;9178;51.120;6.192;2022-10-31T08:28:08;46.33;;;22.30;;
18102;SDS011;9178;51.120;6.192;2022-10-31T08:30:37;42.10;;;20.77;;
18102;SDS011;9178;51.120;6.192;2022-10-31T08:33:04;36.80;;;18.70;;
18102;SDS011;9178;51.120;6.192;2022-10-31T08:35:34;37.47;;;19.40;;
18102;SDS011;9178;51.120;6.192;2022-10-31T08:38:01;39.37;;;19.70;;
18102;SDS011;9178;51.120;6.192;2022-10-31T08:40:28;35.63;;;18.50;;
18102;SDS011;9178;51.120;6.192;2022-10-31T08:42:57;34.40;;;18.20;;
18102;SDS011;9178;51.120;6.192;2022-10-31T08:45:24;34.03;;;17.40;;
18102;SDS011;9178;51.120;6.192;2022-10-31T08:47:51;31.13;;;17.83;;
18102;SDS011;9178;51.120;6.192;2022-10-31T08:50:22;36.37;;;16.63;;
18102;SDS011;9178;51.120;6.192;2022-10-31T08:52:50;32.60;;;16.87;;
18102;SDS011;9178;51.120;6.192;2022-10-31T08:55:17;32.47;;;16.40;;
18102;SDS011;9178;51.120;6.192;2022-10-31T08:57:44;34.07;;;16.43;;
18102;SDS011;9178;51.120;6.192;2022-10-31T09:00:11;26.63;;;15.53;;
18102;SDS011;9178;51.120;6.192;2022-10-31T09:02:38;34.53;;;16.57;;
18102;SDS011;9178;51.120;6.192;2022-10-31T09:05:05;33.03;;;15.33;;
18102;SDS011;9178;51.120;6.192;2022-10-31T09:07:33;34.10;;;15.77;;
18102;SDS011;9178;51.120;6.192;2022-10-31T09:10:01;31.97;;;15.10;;
18102;SDS011;9178;51.120;6.192;2022-10-31T09:12:28;31.57;;;15.27;;
18102;SDS011;9178;51.120;6.192;2022-10-31T09:14:54;30.87;;;14.27;;
18102;SDS011;9178;51.120;6.192;2022-10-31T09:17:21;28.60;;;13.17;;
18102;SDS011;9178;51.120;6.192;2022-10-31T09:19:49;31.27;;;13.37;;
18102;SDS011;9178;51.120;6.192;2022-10-31T09:22:15;29.67;;;12.20;;
18102;SDS011;9178;51.120;6.192;2022-10-31T09:24:42;26.40;;;12.57;;
18102;SDS011;9178;51.120;6.192;2022-10-31T09:27:10;22.40;;;12.17;;
18102;SDS011;9178;51.120;6.192;2022-10-31T09:29:37;25.23;;;11.80;;
18102;SDS011;9178;51.120;6.192;2022-10-31T09:32:04;24.07;;;12.00;;
18102;SDS011;9178;51.120;6.192;2022-10-31T09:34:31;22.90;;;11.87;;
18102;SDS011;9178;51.120;6.192;2022-10-31T09:36:57;24.77;;;11.90;;
18102;SDS011;9178;51.120;6.192;2022-10-31T09:39:24;26.70;;;11.30;;
18102;SDS011;9178;51.120;6.192;2022-10-31T09:42:01;23.70;;;10.47;;
18102;SDS011;9178;51.120;6.192;2022-10-31T09:44:45;20.53;;;10.63;;
18102;SDS011;9178;51.120;6.192;2022-10-31T09:47:20;24.07;;;10.50;;
18102;SDS011;9178;51.120;6.192;2022-10-31T09:49:58;17.03;;;9.57;;
18102;SDS011;9178;51.120;6.192;2022-10-31T09:52:32;22.30;;;9.00;;
18102;SDS011;9178;51.120;6.192;2022-10-31T09:55:03;16.97;;;8.50;;
18102;SDS011;9178;51.120;6.192;2022-10-31T09:57:36;19.50;;;9.03;;
18102;SDS011;9178;51.120;6.192;2022-10-31T10:00:04;13.50;;;8.73;;
18102;SDS011;9178;51.120;6.192;2022-10-31T10:02:32;16.03;;;9.13;;
18102;SDS011;9178;51.120;6.192;2022-10-31T10:05:09;18.93;;;9.00;;
18102;SDS011;9178;51.120;6.192;2022-10-31T10:07:40;18.80;;;9.07;;
18102;SDS011;9178;51.120;6.192;2022-10-31T10:10:14;18.47;;;8.90;;
18102;SDS011;9178;51.120;6.192;2022-10-31T10:12:51;19.47;;;9.10;;
18102;SDS011;9178;51.120;6.192;2022-10-31T10:15:36;17.77;;;8.53;;
18102;SDS011;9178;51.120;6.192;2022-10-31T10:18:18;21.08;;;8.93;;
18102;SDS011;9178;51.120;6.192;2022-10-31T10:20:56;17.83;;;9.05;;
18102;SDS011;9178;51.120;6.192;2022-10-31T10:23:35;24.40;;;9.65;;
18102;SDS011;9178;51.120;6.192;2022-10-31T10:26:13;15.90;;;8.73;;
18102;SDS011;9178;51.120;6.192;2022-10-31T10:28:45;15.82;;;9.20;;
18102;SDS011;9178;51.120;6.192;2022-10-31T10:31:16;16.40;;;9.18;;
18102;SDS011;9178;51.120;6.192;2022-10-31T10:33:48;16.05;;;8.75;;
18102;SDS011;9178;51.120;6.192;2022-10-31T10:36:26;19.48;;;9.07;;
18102;SDS011;9178;51.120;6.192;2022-10-31T10:39:00;16.53;;;8.67;;
18102;SDS011;9178;51.120;6.192;2022-10-31T10:41:31;17.97;;;9.17;;
18102;SDS011;9178;51.120;6.192;2022-10-31T10:44:00;16.52;;;9.32;;
18102;SDS011;9178;51.120;6.192;2022-10-31T10:46:29;17.33;;;9.30;;
18102;SDS011;9178;51.120;6.192;2022-10-31T10:49:32;17.00;;;8.70;;
18102;SDS011;9178;51.120;6.192;2022-10-31T10:52:06;18.20;;;9.20;;
18102;SDS011;9178;51.120;6.192;2022-10-31T10:54:54;19.48;;;9.30;;
18102;SDS011;9178;51.120;6.192;2022-10-31T10:57:38;15.10;;;8.43;;
18102;SDS011;9178;51.120;6.192;2022-10-31T11:00:21;19.02;;;8.52;;
18102;SDS011;9178;51.120;6.192;2022-10-31T11:02:49;19.25;;;8.43;;
18102;SDS011;9178;51.120;6.192;2022-10-31T11:05:19;15.95;;;8.23;;
18102;SDS011;9178;51.120;6.192;2022-10-31T11:07:50;18.38;;;9.68;;
18102;SDS011;9178;51.120;6.192;2022-10-31T11:10:17;18.70;;;8.73;;
18102;SDS011;9178;51.120;6.192;2022-10-31T11:12:45;22.63;;;9.98;;
18102;SDS011;9178;51.120;6.192;2022-10-31T11:15:26;21.63;;;9.25;;
18102;SDS011;9178;51.120;6.192;2022-10-31T11:17:54;16.80;;;8.43;;
18102;SDS011;9178;51.120;6.192;2022-10-31T11:20:24;18.27;;;8.57;;
18102;SDS011;9178;51.120;6.192;2022-10-31T11:23:04;16.13;;;8.57;;
18102;SDS011;9178;51.120;6.192;2022-10-31T11:25:47;18.13;;;9.38;;
18102;SDS011;9178;51.120;6.192;2022-10-31T11:28:15;22.33;;;8.70;;
18102;SDS011;9178;51.120;6.192;2022-10-31T11:30:44;19.95;;;8.77;;
18102;SDS011;9178;51.120;6.192;2022-10-31T11:33:16;16.98;;;8.88;;
18102;SDS011;9178;51.120;6.192;2022-10-31T11:35:46;14.93;;;8.13;;
18102;SDS011;9178;51.120;6.192;2022-10-31T11:38:15;17.17;;;8.75;;
18102;SDS011;9178;51.120;6.192;2022-10-31T11:40:51;20.23;;;8.73;;
18102;SDS011;9178;51.120;6.192;2022-10-31T11:43:20;18.10;;;8.18;;
18102;SDS011;9178;51.120;6.192;2022-10-31T11:45:49;18.33;;;8.45;;
18102;SDS011;9178;51.120;6.192;2022-10-31T11:48:17;18.17;;;8.95;;
18102;SDS011;9178;51.120;6.192;2022-10-31T11:50:49;19.33;;;8.68;;
18102;SDS011;9178;51.120;6.192;2022-10-31T11:53:18;18.05;;;8.27;;
18102;SDS011;9178;51.120;6.192;2022-10-31T11:55:59;15.20;;;8.27;;
18102;SDS011;9178;51.120;6.192;2022-10-31T11:58:29;23.40;;;9.55;;
18102;SDS011;9178;51.120;6.192;2022-10-31T12:00:57;22.35;;;9.00;;
18102;SDS011;9178;51.120;6.192;2022-10-31T12:03:37;19.35;;;8.57;;
18102;SDS011;9178;51.120;6.192;2022-10-31T12:06:10;18.23;;;8.60;;
18102;SDS011;9178;51.120;6.192;2022-10-31T12:08:42;17.83;;;8.85;;
18102;SDS011;9178;51.120;6.192;2022-10-31T12:11:12;16.80;;;8.77;;
18102;SDS011;9178;51.120;6.192;2022-10-31T12:13:54;16.27;;;8.15;;
18102;SDS011;9178;51.120;6.192;2022-10-31T12:16:34;16.85;;;8.48;;
18102;SDS011;9178;51.120;6.192;2022-10-31T12:19:11;18.85;;;7.95;;
18102;SDS011;9178;51.120;6.192;2022-10-31T12:21:48;17.98;;;8.60;;
18102;SDS011;9178;51.120;6.192;2022-10-31T12:24:37;17.33;;;8.50;;
18102;SDS011;9178;51.120;6.192;2022-10-31T12:27:27;14.73;;;7.82;;
18102;SDS011;9178;51.120;6.192;2022-10-31T12:30:11;14.73;;;7.57;;
18102;SDS011;9178;51.120;6.192;2022-10-31T12:32:51;14.60;;;8.02;;
18102;SDS011;9178;51.120;6.192;2022-10-31T12:35:44;18.02;;;7.95;;
18102;SDS011;9178;51.120;6.192;2022-10-31T12:38:28;16.17;;;7.63;;
18102;SDS011;9178;51.120;6.192;2022-10-31T12:41:07;13.35;;;6.60;;
18102;SDS011;9178;51.120;6.192;2022-10-31T12:43:46;17.17;;;6.82;;
18102;SDS011;9178;51.120;6.192;2022-10-31T12:46:23;13.05;;;6.38;;
18102;SDS011;9178;51.120;6.192;2022-10-31T12:49:09;14.07;;;6.90;;
18102;SDS011;9178;51.120;6.192;2022-10-31T12:51:48;15.25;;;7.35;;
18102;SDS011;9178;51.120;6.192;2022-10-31T12:54:30;17.83;;;6.53;;
18102;SDS011;9178;51.120;6.192;2022-10-31T12:57:07;14.43;;;5.20;;
18102;SDS011;9178;51.120;6.192;2022-10-31T12:59:43;15.07;;;5.00;;
18102;SDS011;9178;51.120;6.192;2022-10-31T13:02:24;11.10;;;4.75;;
18102;SDS011;9178;51.120;6.192;2022-10-31T13:04:56;12.68;;;5.38;;
18102;SDS011;9178;51.120;6.192;2022-10-31T13:07:27;12.77;;;5.45;;
18102;SDS011;9178;51.120;6.192;2022-10-31T13:09:58;16.58;;;5.47;;
18102;SDS011;9178;51.120;6.192;2022-10-31T13:12:29;11.18;;;5.03;;
18102;SDS011;9178;51.120;6.192;2022-10-31T13:14:58;13.38;;;5.30;;
18102;SDS011;9178;51.120;6.192;2022-10-31T13:17:30;13.82;;;5.43;;
18102;SDS011;9178;51.120;6.192;2022-10-31T13:20:05;10.90;;;5.18;;
18102;SDS011;9178;51.120;6.192;2022-10-31T13:22:42;10.18;;;4.57;;
18102;SDS011;9178;51.120;6.192;2022-10-31T13:25:13;12.18;;;4.47;;
18102;SDS011;9178;51.120;6.192;2022-10-31T13:27:44;10.15;;;4.28;;
18102;SDS011;9178;51.120;6.192;2022-10-31T13:30:16;12.40;;;4.82;;
18102;SDS011;9178;51.120;6.192;2022-10-31T13:32:44;11.18;;;4.53;;
18102;SDS011;9178;51.120;6.192;2022-10-31T13:35:18;10.35;;;4.05;;
18102;SDS011;9178;51.120;6.192;2022-10-31T13:37:52;10.85;;;4.50;;
18102;SDS011;9178;51.120;6.192;2022-10-31T13:40:30;13.13;;;4.50;;
18102;SDS011;9178;51.120;6.192;2022-10-31T13:43:04;12.80;;;4.63;;
18102;SDS011;9178;51.120;6.192;2022-10-31T13:45:46;9.68;;;4.65;;
18102;SDS011;9178;51.120;6.192;2022-10-31T13:48:18;11.32;;;5.22;;
18102;SDS011;9178;51.120;6.192;2022-10-31T13:51:00;9.30;;;4.57;;
18102;SDS011;9178;51.120;6.192;2022-10-31T13:53:35;11.45;;;4.53;;
18102;SDS011;9178;51.120;6.192;2022-10-31T13:56:22;9.15;;;3.95;;
18102;SDS011;9178;51.120;6.192;2022-10-31T13:58:56;13.57;;;5.03;;
18102;SDS011;9178;51.120;6.192;2022-10-31T14:01:29;13.25;;;4.97;;
18102;SDS011;9178;51.120;6.192;2022-10-31T14:04:05;9.38;;;4.15;;
18102;SDS011;9178;51.120;6.192;2022-10-31T14:06:39;8.48;;;4.30;;
18102;SDS011;9178;51.120;6.192;2022-10-31T14:09:19;7.93;;;4.53;;
18102;SDS011;9178;51.120;6.192;2022-10-31T14:11:54;11.35;;;4.95;;
18102;SDS011;9178;51.120;6.192;2022-10-31T14:14:22;9.13;;;4.22;;
18102;SDS011;9178;51.120;6.192;2022-10-31T14:16:54;12.20;;;4.60;;
18102;SDS011;9178;51.120;6.192;2022-10-31T14:19:22;11.32;;;4.57;;
18102;SDS011;9178;51.120;6.192;2022-10-31T14:21:52;13.00;;;5.43;;
18102;SDS011;9178;51.120;6.192;2022-10-31T14:24:32;10.98;;;5.30;;
18102;SDS011;9178;51.120;6.192;2022-10-31T14:27:01;9.95;;;5.05;;
18102;SDS011;9178;51.120;6.192;2022-10-31T14:29:29;13.35;;;4.85;;
18102;SDS011;9178;51.120;6.192;2022-10-31T14:32:05;15.93;;;4.88;;
18102;SDS011;9178;51.120;6.192;2022-10-31T14:34:52;12.38;;;4.75;;
18102;SDS011;9178;51.120;6.192;2022-10-31T14:37:27;13.40;;;5.18;;
18102;SDS011;9178;51.120;6.192;2022-10-31T14:40:20;11.98;;;5.07;;
18102;SDS011;9178;51.120;6.192;2022-10-31T14:43:01;14.82;;;5.30;;
18102;SDS011;9178;51.120;6.192;2022-10-31T14:45:43;9.48;;;5.50;;
18102;SDS011;9178;51.120;6.192;2022-10-31T14:48:24;10.98;;;4.45;;
18102;SDS011;9178;51.120;6.192;2022-10-31T14:51:09;8.32;;;4.38;;
18102;SDS011;9178;51.120;6.192;2022-10-31T14:53:42;23.88;;;4.68;;
18102;SDS011;9178;51.120;6.192;2022-10-31T14:56:14;12.15;;;5.03;;
18102;SDS011;9178;51.120;6.192;2022-10-31T14:58:46;15.05;;;4.60;;
18102;SDS011;9178;51.120;6.192;2022-10-31T15:01:19;12.07;;;3.95;;
18102;SDS011;9178;51.120;6.192;2022-10-31T15:03:50;20.25;;;5.80;;
18102;SDS011;9178;51.120;6.192;2022-10-31T15:06:18;16.23;;;5.00;;
18102;SDS011;9178;51.120;6.192;2022-10-31T15:08:49;12.80;;;4.35;;
18102;SDS011;9178;51.120;6.192;2022-10-31T15:11:17;14.82;;;4.50;;